Eldridge, AL (35554)

12:30 PM CST on December 04, 2016 (GMT -0600)
Prospect | | Change Station

Elev 495 ft 33.90 °N, 87.44 °W | Updated 29 seconds ago

Rain
Rain
48.9 °F
Feels Like 48 °F
N
4.0
Wind Variable Wind from SE

Today
High -- | Low -- °F
--% Chance of Precip.
Yesterday
High -- | Low -- °F
Precip. -- in
Pressure 29.94 in
Visibility 0.8 miles
Clouds Overcast 300 ft
Windchill 48 °F
Dew Point 48 °F
Humidity 98%
Rainfall 0.07 in
Snow Depth Not available.
6:40 AM 4:41 PM
Waxing Crescent, 24% visible
METAR KJFX 041815Z AUTO 10005KT 3/4SM BR OVC003 10/10 A2994 RMK AO2 PWINO
Pressure 29.94 in
Visibility 0.8 miles
Clouds Overcast 300 ft
Windchill 48 °F
Dew Point 48 °F
Humidity 98%
Rainfall 0.07 in
Snow Depth Not available.
6:40 AM 4:41 PM
Waxing Crescent, 24% visible
METAR KJFX 041815Z AUTO 10005KT 3/4SM BR OVC003 10/10 A2994 RMK AO2 PWINO

10-Day Weather Forecast

Almanac

Astronomy

Dec. 04, 2016 Rise Set
Actual Time
Civil Twilight
Nautical Twilight
Astronomical Twilight
Moon
Length of Visible Light
Length of Day
Tomorrow will be .
, % of the Moon is Illuminated

Today's Extremes

State Highs State Lows

Community

WunderPhotos

Upload Photos

1,955,639 photos uploaded!

WunderBlog® & News

Nearby

Air Quality

  Air Quality AQ Index Pollutant
Not available.

Snow Depth

Station Depth Elevation

Earthquake Activity

City Distance Mag. Time & Date
Minimum magnitude displayed is 2.5.

Coastal Water Temperatures

Place Temperature

Stations

Nearby Weather Stations

Station Location Temp. Windchill Dew Point Humidity Wind Precip. Elev Updated Type
                   

Watches & Warnings

There are currently no watches in effect.